Time;durP1;ratioP1;P1;durP2;ratioP2;P2;SDS_P1;SDS_P2;PMS_P1;PMS_P2;Temp;Humidity;BMP_temperature;BMP_pressure;BME280_temperature;BME280_humidity;BME280_pressure;Samples;Min_cycle;Max_cycle;Signal;HPM_P1;HPM_P2
2023/01/06 00:02:00;;;;;;;4.60;1.20;;;10.10;1.00;;;;;;5069467;28;20442;-52
2023/01/06 00:04:26;;;;;;;4.90;1.40;;;10.00;1.00;;;;;;5069588;28;20482;-52
2023/01/06 00:06:52;;;;;;;6.55;1.55;;;10.00;1.00;;;;;;5069349;28;20416;-57
2023/01/06 00:09:17;;;;;;;5.25;1.70;;;10.00;1.00;;;;;;5070563;28;20400;-52
2023/01/06 00:11:43;;;;;;;4.67;1.40;;;10.10;1.00;;;;;;5069985;28;20462;-52
2023/01/06 00:14:08;;;;;;;5.00;1.60;;;10.10;1.00;;;;;;5069087;28;20467;-53
2023/01/06 00:16:35;;;;;;;4.90;1.42;;;10.10;99.90;;;;;;5070171;28;20860;-53
2023/01/06 00:19:00;;;;;;;5.32;1.60;;;10.10;1.00;;;;;;5069133;28;20387;-52
2023/01/06 00:21:27;;;;;;;5.80;1.30;;;10.10;1.00;;;;;;5069828;28;20372;-54
2023/01/06 00:23:52;;;;;;;4.80;1.60;;;10.20;99.90;;;;;;5069753;28;20857;-57
2023/01/06 00:26:18;;;;;;;7.00;1.80;;;10.20;99.90;;;;;;5051370;28;20403;-53
2023/01/06 00:28:44;;;;;;;4.90;1.60;;;10.10;99.90;;;;;;5069420;28;20960;-53
2023/01/06 00:31:13;;;;;;;5.10;1.50;;;10.00;99.90;;;;;;5069082;28;20411;-53
2023/01/06 00:33:40;;;;;;;4.90;1.60;;;10.00;99.90;;;;;;5069677;28;20380;-53
2023/01/06 00:36:07;;;;;;;5.40;1.60;;;10.10;1.00;;;;;;5068863;28;20412;-53
2023/01/06 00:38:35;;;;;;;6.50;1.65;;;10.10;99.90;;;;;;5069769;28;20880;-52
2023/01/06 00:41:04;;;;;;;4.80;1.30;;;10.80;99.90;;;;;;5068763;28;20458;-54
2023/01/06 00:43:30;;;;;;;4.80;1.40;;;10.30;99.90;;;;;;5069440;28;20467;-53
2023/01/06 00:45:56;;;;;;;4.70;1.30;;;10.40;99.90;;;;;;5068961;28;20410;-57
2023/01/06 00:48:21;;;;;;;6.60;1.52;;;10.50;99.90;;;;;;5069747;28;20379;-53
2023/01/06 00:50:47;;;;;;;4.23;1.10;;;10.60;99.90;;;;;;5069274;28;20379;-52
2023/01/06 00:53:12;;;;;;;6.10;1.50;;;10.60;99.90;;;;;;5069273;28;20384;-53
2023/01/06 00:55:38;;;;;;;4.75;1.30;;;10.80;99.90;;;;;;5069581;28;20851;-53
2023/01/06 00:58:03;;;;;;;5.20;1.57;;;10.90;1.00;;;;;;5068673;28;20382;-53
2023/01/06 01:00:29;;;;;;;4.50;1.50;;;10.80;1.00;;;;;;5069460;28;20379;-53
2023/01/06 01:02:55;;;;;;;5.50;1.40;;;10.80;1.00;;;;;;5069074;28;20456;-57
2023/01/06 01:05:20;;;;;;;7.20;1.13;;;10.80;1.00;;;;;;5069205;28;20399;-53
2023/01/06 01:07:46;;;;;;;4.60;1.10;;;10.80;1.00;;;;;;5069652;28;20487;-53
2023/01/06 01:10:11;;;;;;;5.07;1.70;;;10.90;1.00;;;;;;5068804;28;21278;-53
2023/01/06 01:12:37;;;;;;;5.10;1.52;;;10.70;1.00;;;;;;5069475;28;20382;-53
2023/01/06 01:15:03;;;;;;;5.10;1.50;;;10.70;1.00;;;;;;5068592;28;20383;-53
2023/01/06 01:17:31;;;;;;;5.32;1.60;;;10.50;1.00;;;;;;5069201;28;20426;-53
2023/01/06 01:19:58;;;;;;;4.68;1.33;;;10.50;72.80;;;;;;5068519;28;20412;-58
2023/01/06 01:22:26;;;;;;;5.40;1.30;;;10.40;99.90;;;;;;5069406;28;20434;-53
2023/01/06 01:24:52;;;;;;;6.40;1.60;;;10.30;99.90;;;;;;5069467;28;20383;-53
2023/01/06 01:27:18;;;;;;;5.40;1.67;;;10.30;99.90;;;;;;5068256;28;20408;-53
2023/01/06 01:29:43;;;;;;;5.60;1.63;;;10.40;99.90;;;;;;5069561;28;20383;-53
2023/01/06 01:32:09;;;;;;;5.18;1.42;;;10.40;99.90;;;;;;5068694;28;20583;-54
2023/01/06 01:34:35;;;;;;;4.80;1.30;;;10.50;99.90;;;;;;5068568;28;20434;-54
2023/01/06 01:37:01;;;;;;;6.10;1.47;;;10.50;99.90;;;;;;5068237;28;20447;-53
2023/01/06 01:39:28;;;;;;;5.60;1.30;;;10.50;99.90;;;;;;5069170;28;20388;-53
2023/01/06 01:41:55;;;;;;;4.60;1.20;;;10.60;99.90;;;;;;5070957;28;20429;-58
2023/01/06 01:44:57;;;;;;;4.35;1.20;;;10.60;99.90;;;;;;5072400;28;20387;-53
2023/01/06 01:47:46;;;;;;;5.35;1.20;;;10.60;99.90;;;;;;5072272;28;20407;-53
2023/01/06 01:50:32;;;;;;;5.00;1.40;;;10.60;99.90;;;;;;5071645;28;20399;-53
2023/01/06 01:53:08;;;;;;;4.60;1.10;;;10.50;99.90;;;;;;5071173;28;20749;-56
2023/01/06 01:55:36;;;;;;;4.80;1.17;;;10.60;54.90;;;;;;5072693;28;20386;-53
2023/01/06 01:58:12;;;;;;;6.00;1.20;;;10.60;19.20;;;;;;5072119;28;20376;-53
2023/01/06 02:00:40;;;;;;;4.90;1.30;;;10.60;1.00;;;;;;5072457;28;20383;-54
2023/01/06 02:03:06;;;;;;;4.43;1.20;;;10.60;99.90;;;;;;5071796;28;20927;-53
2023/01/06 02:05:32;;;;;;;4.70;1.00;;;10.70;99.90;;;;;;5072059;28;20396;-54
2023/01/06 02:08:04;;;;;;;7.50;1.50;;;10.70;1.00;;;;;;5071703;28;20508;-53
2023/01/06 02:10:29;;;;;;;5.60;1.40;;;10.70;1.00;;;;;;5072348;28;20463;-53
2023/01/06 02:12:58;;;;;;;4.60;1.10;;;10.70;1.00;;;;;;5071285;28;20471;-58
2023/01/06 02:15:33;;;;;;;4.30;1.00;;;10.70;1.00;;;;;;5072160;28;20384;-55
2023/01/06 02:18:13;;;;;;;5.25;1.23;;;10.70;1.00;;;;;;5071526;28;20434;-54
2023/01/06 02:20:57;;;;;;;5.17;1.10;;;11.50;1.00;;;;;;5072072;28;20419;-53
2023/01/06 02:23:22;;;;;;;6.00;1.30;;;10.50;1.00;;;;;;5071813;28;20388;-53
2023/01/06 02:26:29;;;;;;;5.43;1.20;;;10.50;11.20;;;;;;5071957;28;20733;-53
2023/01/06 02:29:33;;;;;;;4.60;1.02;;;10.50;53.30;;;;;;5071529;28;20398;-58
2023/01/06 02:32:13;;;;;;;5.03;1.40;;;10.40;97.30;;;;;;5070863;28;20387;-54
2023/01/06 02:35:06;;;;;;;6.00;1.30;;;10.40;99.90;;;;;;5053813;28;20416;-53
2023/01/06 02:38:08;;;;;;;4.80;1.17;;;10.40;99.90;;;;;;5071921;28;20396;-54
2023/01/06 02:40:52;;;;;;;5.40;1.20;;;10.40;99.90;;;;;;5072148;28;20892;-53
2023/01/06 02:43:55;;;;;;;4.70;1.33;;;10.40;99.90;;;;;;5084035;28;20386;-53
2023/01/06 02:46:42;;;;;;;4.75;1.40;;;10.30;99.90;;;;;;5091234;28;20725;-54
2023/01/06 02:49:14;;;;;;;5.00;1.50;;;10.30;99.90;;;;;;5091023;28;20844;-53
2023/01/06 02:51:49;;;;;;;4.50;1.20;;;10.30;99.90;;;;;;5091230;28;20382;-53
2023/01/06 02:54:27;;;;;;;5.20;1.40;;;10.30;99.90;;;;;;5091083;28;20997;-53
2023/01/06 02:57:08;;;;;;;4.90;1.30;;;10.30;99.90;;;;;;5091806;28;20409;-53
2023/01/06 02:59:42;;;;;;;5.10;1.60;;;10.30;99.90;;;;;;5091517;28;20385;-52
2023/01/06 03:02:10;;;;;;;5.40;1.33;;;10.30;99.90;;;;;;5090901;28;20450;-53
2023/01/06 03:04:42;;;;;;;5.00;1.00;;;10.30;99.90;;;;;;5091415;28;20470;-54
2023/01/06 03:07:09;;;;;;;5.80;1.23;;;10.40;99.90;;;;;;5090607;28;20515;-53
2023/01/06 03:09:37;;;;;;;6.82;1.40;;;10.50;99.90;;;;;;5072927;28;20837;-53
2023/01/06 03:12:11;;;;;;;5.00;1.20;;;10.50;99.90;;;;;;5087747;28;20718;-53
2023/01/06 03:14:47;;;;;;;5.75;1.50;;;10.40;99.90;;;;;;5070865;28;20380;-53
2023/01/06 03:17:13;;;;;;;5.10;1.20;;;10.40;99.90;;;;;;5070107;28;20392;-53
2023/01/06 03:19:39;;;;;;;4.22;1.10;;;10.40;99.90;;;;;;5070924;28;20383;-53
2023/01/06 03:22:06;;;;;;;4.17;1.10;;;10.40;99.90;;;;;;5070290;28;20376;-53
2023/01/06 03:24:35;;;;;;;5.30;1.30;;;10.40;99.90;;;;;;5070893;28;20387;-53
2023/01/06 03:27:02;;;;;;;5.30;1.40;;;10.40;99.90;;;;;;5069605;28;20444;-53
2023/01/06 03:29:28;;;;;;;4.90;1.30;;;10.40;99.90;;;;;;5070790;28;20459;-53
2023/01/06 03:32:04;;;;;;;5.00;1.10;;;10.50;99.90;;;;;;5070584;28;20690;-53
2023/01/06 03:34:47;;;;;;;4.90;1.15;;;10.50;99.90;;;;;;5070599;28;20387;-53
2023/01/06 03:37:30;;;;;;;4.60;1.13;;;10.60;99.90;;;;;;5030754;28;20489;-53
2023/01/06 03:40:05;;;;;;;4.72;1.13;;;10.60;99.90;;;;;;5031334;28;20429;-58
2023/01/06 03:45:27;;;;;;;5.30;1.30;;;10.50;99.90;;;;;;5030212;28;20398;-53
2023/01/06 03:48:03;;;;;;;4.93;1.30;;;10.50;99.90;;;;;;5030683;28;20403;-53
2023/01/06 03:50:35;;;;;;;5.73;1.07;;;10.50;99.90;;;;;;5031187;28;20406;-53
2023/01/06 03:53:33;;;;;;;6.18;1.20;;;10.60;99.90;;;;;;5029913;28;20375;-53
2023/01/06 03:56:13;;;;;;;5.38;1.10;;;10.60;99.90;;;;;;5027622;28;20434;-58
2023/01/06 03:58:39;;;;;;;4.88;1.20;;;10.60;99.90;;;;;;5030702;28;20473;-53
2023/01/06 04:01:07;;;;;;;5.47;1.40;;;10.50;99.90;;;;;;5029884;28;20618;-53
2023/01/06 04:03:33;;;;;;;6.53;1.58;;;10.50;99.90;;;;;;5029979;28;20379;-53
2023/01/06 04:05:59;;;;;;;5.22;1.65;;;10.50;99.90;;;;;;5045182;28;20464;-54
2023/01/06 04:08:25;;;;;;;5.20;1.30;;;10.50;99.90;;;;;;5030542;28;20411;-53
2023/01/06 04:10:50;;;;;;;4.68;1.27;;;10.60;99.90;;;;;;5030602;28;20805;-53
2023/01/06 04:13:16;;;;;;;4.40;1.10;;;10.60;99.90;;;;;;5044792;28;20387;-53
2023/01/06 04:15:41;;;;;;;6.20;1.50;;;10.50;85.60;;;;;;5029915;28;20383;-53
2023/01/06 04:18:07;;;;;;;4.37;1.30;;;10.30;99.90;;;;;;5029916;28;20794;-54
2023/01/06 04:20:33;;;;;;;4.50;1.30;;;10.50;99.90;;;;;;5030005;28;20395;-54
2023/01/06 04:22:58;;;;;;;6.43;1.50;;;10.50;99.90;;;;;;5029278;28;20391;-57
2023/01/06 04:25:24;;;;;;;6.40;1.63;;;10.70;99.90;;;;;;5030252;28;20383;-53
2023/01/06 04:27:50;;;;;;;7.33;1.50;;;10.70;99.90;;;;;;5029853;28;20403;-53
2023/01/06 04:30:16;;;;;;;4.25;0.95;;;10.80;99.90;;;;;;5028945;28;21083;-53
2023/01/06 04:32:42;;;;;;;4.68;1.10;;;10.90;99.90;;;;;;5029971;28;20437;-55
2023/01/06 04:35:08;;;;;;;4.30;1.00;;;11.00;99.90;;;;;;5035766;28;20449;-53
2023/01/06 04:37:34;;;;;;;4.20;0.93;;;11.00;99.90;;;;;;5069683;28;20400;-53
2023/01/06 04:40:00;;;;;;;4.40;1.20;;;11.10;99.90;;;;;;5068709;28;20387;-53
2023/01/06 04:42:25;;;;;;;4.30;1.10;;;11.30;99.90;;;;;;5075592;28;20382;-53
2023/01/06 04:44:51;;;;;;;4.70;1.10;;;11.30;99.90;;;;;;5089681;28;20404;-53
2023/01/06 04:47:16;;;;;;;4.70;1.10;;;11.40;99.90;;;;;;5089148;28;20483;-53
2023/01/06 04:49:42;;;;;;;4.63;1.00;;;11.50;99.90;;;;;;5089688;28;20404;-53
2023/01/06 04:52:08;;;;;;;4.60;1.00;;;11.50;99.90;;;;;;5088705;28;20427;-53
2023/01/06 04:54:34;;;;;;;5.40;1.07;;;11.60;99.90;;;;;;5089708;28;20381;-53
2023/01/06 04:57:00;;;;;;;4.30;1.00;;;11.60;99.90;;;;;;5088873;28;20380;-57
2023/01/06 04:59:25;;;;;;;4.40;0.93;;;11.60;99.90;;;;;;5089445;28;20477;-53
2023/01/06 05:01:51;;;;;;;4.30;0.90;;;11.40;99.90;;;;;;5090088;28;20390;-50
2023/01/06 05:04:17;;;;;;;5.22;1.38;;;11.60;99.90;;;;;;5088659;28;20382;-52
2023/01/06 05:06:42;;;;;;;4.47;1.07;;;11.50;99.90;;;;;;5089373;28;20401;-53
2023/01/06 05:09:08;;;;;;;5.10;1.10;;;11.30;99.90;;;;;;5089198;28;20427;-53
2023/01/06 05:11:34;;;;;;;4.67;1.10;;;11.00;99.90;;;;;;5089612;28;20835;-53
2023/01/06 05:13:59;;;;;;;4.78;1.20;;;11.00;99.90;;;;;;5088601;28;20785;-58
2023/01/06 05:16:31;;;;;;;5.18;1.40;;;11.00;99.90;;;;;;5092195;28;20858;-53
2023/01/06 05:18:57;;;;;;;5.35;1.30;;;11.20;99.90;;;;;;5092901;28;20392;-58
2023/01/06 05:21:25;;;;;;;5.60;1.20;;;11.10;99.90;;;;;;5093186;28;20386;-53
2023/01/06 05:23:51;;;;;;;4.95;1.40;;;11.00;99.90;;;;;;5093674;28;20870;-53
2023/01/06 05:26:20;;;;;;;5.47;1.60;;;11.00;99.90;;;;;;5092732;28;21012;-53
2023/01/06 05:28:46;;;;;;;5.90;1.52;;;11.10;99.90;;;;;;5092875;28;20396;-53
2023/01/06 05:31:12;;;;;;;4.80;1.40;;;11.20;99.90;;;;;;5092272;28;20385;-54
2023/01/06 05:33:38;;;;;;;6.10;1.33;;;11.10;99.90;;;;;;5092947;28;20416;-53
2023/01/06 05:36:08;;;;;;;4.88;1.40;;;11.10;99.90;;;;;;5092108;28;20418;-53
2023/01/06 05:38:33;;;;;;;6.60;1.70;;;11.10;99.90;;;;;;5093112;28;20374;-52
2023/01/06 05:40:59;;;;;;;6.70;1.60;;;11.00;99.90;;;;;;5092533;28;20434;-57
2023/01/06 05:43:26;;;;;;;5.93;1.70;;;11.00;99.90;;;;;;5092827;28;20374;-52
2023/01/06 05:45:53;;;;;;;4.75;1.40;;;10.90;99.90;;;;;;5092821;28;20924;-52
2023/01/06 05:48:22;;;;;;;6.10;1.73;;;10.90;99.90;;;;;;5074219;28;20402;-53
2023/01/06 05:50:48;;;;;;;5.32;1.60;;;10.90;99.90;;;;;;5092740;28;20386;-52
2023/01/06 05:53:14;;;;;;;4.90;1.40;;;10.80;99.90;;;;;;5091716;28;20455;-55
2023/01/06 05:55:39;;;;;;;4.93;1.38;;;10.60;99.90;;;;;;5092858;28;20382;-52
2023/01/06 05:58:05;;;;;;;4.53;1.40;;;10.50;99.90;;;;;;5092070;28;20389;-52
2023/01/06 06:00:30;;;;;;;5.25;1.48;;;10.60;99.90;;;;;;5092786;28;20382;-52
2023/01/06 06:02:56;;;;;;;5.00;1.40;;;10.70;99.90;;;;;;5092828;28;20757;-52
2023/01/06 06:05:22;;;;;;;5.00;1.55;;;10.60;99.90;;;;;;5092025;28;20381;-53
2023/01/06 06:07:54;;;;;;;6.20;1.30;;;10.60;99.90;;;;;;5092801;28;20402;-52
2023/01/06 06:10:21;;;;;;;5.35;1.67;;;10.60;99.90;;;;;;5091985;28;20816;-53
2023/01/06 06:12:46;;;;;;;5.80;1.50;;;10.50;99.90;;;;;;5092040;28;20739;-54
2023/01/06 06:15:12;;;;;;;6.33;1.43;;;10.60;99.90;;;;;;5091391;28;20382;-53
2023/01/06 06:17:37;;;;;;;6.20;1.40;;;10.70;99.90;;;;;;5092815;28;20385;-52
2023/01/06 06:20:04;;;;;;;4.80;1.50;;;10.70;99.90;;;;;;5091098;28;20952;-53
2023/01/06 06:22:30;;;;;;;4.47;1.30;;;10.70;99.90;;;;;;5092513;28;20370;-53
2023/01/06 06:24:55;;;;;;;5.40;1.45;;;10.70;99.90;;;;;;5092121;28;20382;-54
2023/01/06 06:27:21;;;;;;;4.53;1.30;;;10.70;99.90;;;;;;5090898;28;21281;-52
2023/01/06 06:29:46;;;;;;;6.87;2.30;;;10.70;99.90;;;;;;5091903;28;20469;-52
2023/01/06 06:32:12;;;;;;;7.18;2.65;;;10.70;99.90;;;;;;5091781;28;20381;-53
2023/01/06 06:34:37;;;;;;;7.53;3.00;;;10.80;99.90;;;;;;5092251;28;20803;-52
2023/01/06 06:37:03;;;;;;;10.68;3.50;;;10.80;99.90;;;;;;5091375;28;20402;-53
2023/01/06 06:39:28;;;;;;;6.43;2.33;;;10.80;99.90;;;;;;5092038;28;20384;-53
2023/01/06 06:41:54;;;;;;;8.30;2.00;;;11.00;99.90;;;;;;5091444;28;20916;-52
2023/01/06 06:44:20;;;;;;;6.90;2.50;;;11.10;99.90;;;;;;5091121;28;20478;-52
2023/01/06 06:46:45;;;;;;;6.55;1.55;;;11.10;1.00;;;;;;5091251;28;20443;-52
2023/01/06 06:49:11;;;;;;;6.47;1.80;;;11.10;1.00;;;;;;5090825;28;20386;-52
2023/01/06 06:51:36;;;;;;;5.97;2.00;;;10.90;1.00;;;;;;5091903;28;20852;-52
2023/01/06 06:54:03;;;;;;;7.23;2.30;;;11.00;1.00;;;;;;5090640;28;20427;-52
2023/01/06 06:56:28;;;;;;;5.40;1.60;;;11.00;1.00;;;;;;5091785;28;20881;-52
2023/01/06 06:58:54;;;;;;;5.20;1.40;;;10.90;1.00;;;;;;5073547;28;20397;-52
2023/01/06 07:01:20;;;;;;;7.90;1.80;;;10.80;1.00;;;;;;5090896;28;20402;-52
2023/01/06 07:03:46;;;;;;;4.93;1.45;;;10.70;1.00;;;;;;5064625;28;20399;-54
2023/01/06 07:06:15;;;;;;;6.23;1.97;;;10.70;10.10;;;;;;5066528;28;20931;-52
2023/01/06 07:08:46;;;;;;;7.70;2.20;;;10.80;32.20;;;;;;5071262;28;20395;-52
2023/01/06 07:11:12;;;;;;;10.50;5.13;;;10.90;34.50;;;;;;5070107;28;20379;-52
2023/01/06 07:13:37;;;;;;;7.13;2.13;;;10.80;15.50;;;;;;5082828;28;20444;-51
2023/01/06 07:16:04;;;;;;;10.60;4.77;;;10.80;99.90;;;;;;5070009;28;20900;-52
2023/01/06 07:18:29;;;;;;;8.43;3.63;;;10.80;99.90;;;;;;5071120;28;20376;-52
2023/01/06 07:20:55;;;;;;;8.32;3.80;;;10.90;99.90;;;;;;5070560;28;20961;-52
2023/01/06 07:23:22;;;;;;;9.30;3.00;;;10.90;99.90;;;;;;5069640;28;20469;-51
2023/01/06 07:25:56;;;;;;;5.50;2.20;;;10.70;99.90;;;;;;5070558;28;20379;-51
2023/01/06 07:28:22;;;;;;;6.20;2.35;;;10.70;99.90;;;;;;5069898;28;20383;-53
2023/01/06 07:30:48;;;;;;;5.25;1.70;;;10.60;1.00;;;;;;5070700;28;20501;-53
2023/01/06 07:33:14;;;;;;;5.67;1.60;;;10.50;1.00;;;;;;5069972;28;20466;-52
2023/01/06 07:35:40;;;;;;;6.50;1.50;;;10.40;1.00;;;;;;5069968;28;20406;-52
2023/01/06 07:38:06;;;;;;;5.47;1.60;;;10.30;1.00;;;;;;5069227;28;21131;-55
2023/01/06 07:40:33;;;;;;;4.80;1.40;;;10.20;1.00;;;;;;5070072;28;20399;-54
2023/01/06 07:43:06;;;;;;;6.70;1.60;;;10.20;1.00;;;;;;5081007;28;20464;-58
2023/01/06 07:45:32;;;;;;;5.07;1.20;;;10.20;1.00;;;;;;5090932;28;20413;-54
2023/01/06 07:47:58;;;;;;;5.70;1.80;;;10.20;1.00;;;;;;5090548;28;20402;-58
2023/01/06 07:50:24;;;;;;;5.63;1.60;;;10.10;1.00;;;;;;5089600;28;20389;-54
2023/01/06 07:52:50;;;;;;;5.50;1.70;;;10.00;1.00;;;;;;5090732;28;20370;-52
2023/01/06 07:55:16;;;;;;;5.10;1.45;;;10.00;1.00;;;;;;5089766;28;20409;-54
2023/01/06 07:57:42;;;;;;;5.60;1.83;;;9.90;1.00;;;;;;5090351;28;20461;-52
2023/01/06 08:00:08;;;;;;;5.40;1.10;;;9.80;1.00;;;;;;5089543;28;20370;-52
2023/01/06 08:02:33;;;;;;;4.32;1.10;;;9.60;1.00;;;;;;5090355;28;20397;-51
2023/01/06 08:04:59;;;;;;;4.30;1.20;;;9.50;1.00;;;;;;5089873;28;20770;-57
2023/01/06 08:07:25;;;;;;;4.20;0.80;;;10.00;1.00;;;;;;5089230;28;20478;-52
2023/01/06 08:09:50;;;;;;;3.67;0.70;;;9.30;1.00;;;;;;5090173;28;20746;-53
2023/01/06 08:12:16;;;;;;;3.92;0.80;;;9.30;1.00;;;;;;5089058;28;20390;-52
2023/01/06 08:14:42;;;;;;;3.90;0.80;;;9.30;1.00;;;;;;5074433;28;20376;-51
2023/01/06 08:17:07;;;;;;;4.10;0.63;;;9.30;1.00;;;;;;5051008;28;20418;-52
2023/01/06 08:19:33;;;;;;;3.55;0.60;;;9.40;1.00;;;;;;5069441;28;20394;-53
2023/01/06 08:21:59;;;;;;;3.70;0.50;;;9.40;1.00;;;;;;5069654;28;20454;-57
2023/01/06 08:24:24;;;;;;;3.63;0.73;;;9.50;1.00;;;;;;5069286;28;20380;-52
2023/01/06 08:26:50;;;;;;;3.90;0.60;;;9.50;1.00;;;;;;5069717;28;20412;-53
2023/01/06 08:29:15;;;;;;;4.30;0.80;;;9.60;99.90;;;;;;5069192;28;20384;-51
2023/01/06 08:31:41;;;;;;;4.03;0.63;;;9.60;1.00;;;;;;5069349;28;20382;-51
2023/01/06 08:34:07;;;;;;;3.80;0.50;;;11.40;99.90;;;;;;5068864;28;20877;-53
2023/01/06 08:36:32;;;;;;;4.30;0.80;;;9.70;99.90;;;;;;5069450;28;20739;-53
2023/01/06 08:38:58;;;;;;;4.60;0.70;;;10.60;99.90;;;;;;5069694;28;20387;-53
2023/01/06 08:41:23;;;;;;;4.40;0.73;;;9.90;99.90;;;;;;5069044;28;20391;-52
2023/01/06 08:43:49;;;;;;;4.55;0.68;;;10.00;99.90;;;;;;5087499;28;20393;-52
2023/01/06 08:46:19;;;;;;;3.70;0.60;;;10.10;93.10;;;;;;5088781;28;20429;-53
2023/01/06 08:48:46;;;;;;;4.00;0.90;;;10.10;1.00;;;;;;5089779;28;20374;-53
2023/01/06 08:51:17;;;;;;;4.20;1.05;;;10.10;1.00;;;;;;5093258;28;20401;-52
2023/01/06 08:53:43;;;;;;;4.00;0.45;;;10.10;99.90;;;;;;5096080;28;20389;-53
2023/01/06 08:56:35;;;;;;;4.03;0.60;;;10.00;79.80;;;;;;5095938;28;20396;-53
2023/01/06 08:59:02;;;;;;;3.40;0.30;;;10.10;1.00;;;;;;5073366;28;20389;-57
2023/01/06 09:01:34;;;;;;;4.80;0.77;;;10.10;99.90;;;;;;5096320;28;20382;-53
2023/01/06 09:04:03;;;;;;;5.50;0.40;;;10.20;99.90;;;;;;5093220;28;20920;-58
2023/01/06 09:06:29;;;;;;;4.47;0.50;;;10.30;1.00;;;;;;5071388;28;20505;-52
2023/01/06 09:08:56;;;;;;;4.70;0.60;;;10.30;99.90;;;;;;5075445;28;20406;-53
2023/01/06 09:11:22;;;;;;;3.90;0.40;;;10.30;99.90;;;;;;5075143;28;20375;-53
2023/01/06 09:13:49;;;;;;;3.70;0.40;;;10.40;99.90;;;;;;5085649;28;20411;-52
2023/01/06 09:16:16;;;;;;;3.80;0.40;;;10.40;1.00;;;;;;5073307;28;20419;-53
2023/01/06 09:18:47;;;;;;;6.07;0.50;;;10.60;99.90;;;;;;5066918;28;20856;-53
2023/01/06 09:21:13;;;;;;;3.70;0.40;;;10.60;99.90;;;;;;5075038;28;20386;-52
2023/01/06 09:23:38;;;;;;;3.80;0.30;;;10.70;99.90;;;;;;5075633;28;20387;-53
2023/01/06 09:26:04;;;;;;;4.10;0.70;;;10.70;52.60;;;;;;5075413;28;20383;-58
2023/01/06 09:28:31;;;;;;;3.97;0.50;;;10.80;1.00;;;;;;5075910;28;20380;-53
2023/01/06 09:30:56;;;;;;;3.88;0.30;;;10.90;1.00;;;;;;5076257;28;20409;-53
2023/01/06 09:33:22;;;;;;;4.00;0.50;;;11.00;99.90;;;;;;5075576;28;20380;-53
2023/01/06 09:35:48;;;;;;;3.80;0.40;;;11.10;99.90;;;;;;5076181;28;20460;-55
2023/01/06 09:38:14;;;;;;;5.10;0.60;;;11.10;99.90;;;;;;5075186;28;20383;-53
2023/01/06 09:41:07;;;;;;;3.70;0.40;;;11.20;86.40;;;;;;5076258;28;20376;-53
2023/01/06 09:43:44;;;;;;;3.90;0.50;;;11.30;1.00;;;;;;5091644;28;20386;-53
2023/01/06 09:46:14;;;;;;;3.80;0.32;;;11.30;1.00;;;;;;5095347;28;20401;-53
2023/01/06 09:48:48;;;;;;;4.35;0.50;;;11.20;1.00;;;;;;5096130;28;20771;-54
2023/01/06 09:51:19;;;;;;;3.80;0.40;;;11.50;99.90;;;;;;5095751;28;20378;-53
2023/01/06 09:53:57;;;;;;;4.70;0.50;;;11.80;99.90;;;;;;5096243;28;20416;-54
2023/01/06 09:56:24;;;;;;;4.63;0.40;;;12.10;99.90;;;;;;5095891;28;20461;-53
2023/01/06 09:59:13;;;;;;;3.80;0.40;;;11.90;99.90;;;;;;5096357;28;20374;-53
2023/01/06 10:01:45;;;;;;;3.80;0.40;;;11.90;26.10;;;;;;5075870;28;20409;-53
2023/01/06 10:04:31;;;;;;;4.00;0.40;;;11.70;20.10;;;;;;5091878;28;20926;-54
2023/01/06 10:07:35;;;;;;;3.90;0.50;;;11.50;63.80;;;;;;5092161;28;20418;-53
2023/01/06 10:10:01;;;;;;;4.00;0.40;;;11.40;99.90;;;;;;5070757;28;20459;-58
2023/01/06 10:12:37;;;;;;;3.70;0.40;;;11.30;91.50;;;;;;5092463;28;20378;-52
2023/01/06 10:15:17;;;;;;;5.20;0.50;;;11.20;99.90;;;;;;5074349;28;20383;-57
2023/01/06 10:18:07;;;;;;;5.40;0.43;;;11.40;99.90;;;;;;5072179;28;20423;-53
2023/01/06 10:20:46;;;;;;;3.92;0.60;;;11.40;99.90;;;;;;5072978;28;20406;-53
2023/01/06 10:23:47;;;;;;;3.88;0.50;;;11.70;87.50;;;;;;5070969;28;20372;-53
2023/01/06 10:26:21;;;;;;;3.80;0.40;;;11.80;92.10;;;;;;5071269;28;20765;-53
2023/01/06 10:28:52;;;;;;;4.70;0.60;;;11.60;5.20;;;;;;5072017;28;20384;-53
2023/01/06 10:31:22;;;;;;;4.10;0.60;;;11.60;42.20;;;;;;5071078;28;20372;-53
2023/01/06 10:33:52;;;;;;;4.00;0.50;;;11.50;1.00;;;;;;5071920;28;20415;-53
2023/01/06 10:36:40;;;;;;;4.20;0.40;;;11.60;24.30;;;;;;5070919;28;20748;-54
2023/01/06 10:39:15;;;;;;;4.40;0.40;;;11.70;26.90;;;;;;5070168;28;20391;-54
2023/01/06 10:42:54;;;;;;;4.70;0.60;;;11.80;1.00;;;;;;5071956;28;20433;-53
2023/01/06 10:44:45;;;;;;;4.10;0.70;;;11.90;30.50;;;;;;5071093;28;20402;-51
2023/01/06 10:47:24;;;;;;;4.25;0.50;;;12.00;1.00;;;;;;5070716;28;20404;-51
2023/01/06 10:49:50;;;;;;;4.40;0.50;;;12.00;1.00;;;;;;5070858;28;20732;-50
2023/01/06 10:52:16;;;;;;;4.30;0.70;;;11.90;1.00;;;;;;5070452;28;20515;-51
2023/01/06 10:54:43;;;;;;;3.90;0.40;;;12.10;1.00;;;;;;5070595;28;20383;-51
2023/01/06 10:57:20;;;;;;;4.88;0.60;;;12.20;1.00;;;;;;5069788;28;20418;-51
2023/01/06 11:00:22;;;;;;;4.22;0.70;;;12.30;1.00;;;;;;5070919;28;20384;-51
2023/01/06 11:02:50;;;;;;;4.30;0.77;;;12.40;1.00;;;;;;5071084;28;20411;-51
2023/01/06 11:05:18;;;;;;;4.30;0.70;;;12.60;1.00;;;;;;5070386;28;20427;-51
2023/01/06 11:07:53;;;;;;;4.50;0.68;;;12.40;1.00;;;;;;5070928;28;20480;-51
2023/01/06 11:10:52;;;;;;;4.28;0.60;;;12.40;1.00;;;;;;5070311;28;20522;-51
2023/01/06 11:13:25;;;;;;;4.70;0.57;;;12.40;1.00;;;;;;5079258;28;20387;-52
2023/01/06 11:15:52;;;;;;;4.18;0.47;;;12.30;1.00;;;;;;5070373;28;20447;-52
2023/01/06 11:18:28;;;;;;;4.30;0.60;;;12.30;1.00;;;;;;5070297;28;20383;-52
2023/01/06 11:21:03;;;;;;;3.90;0.40;;;12.20;1.00;;;;;;5071195;28;20396;-52
2023/01/06 11:23:29;;;;;;;4.20;0.50;;;12.30;1.00;;;;;;5070735;28;20399;-50
2023/01/06 11:26:12;;;;;;;4.63;0.50;;;12.40;1.00;;;;;;5070300;28;20368;-52
2023/01/06 11:28:39;;;;;;;4.15;0.50;;;12.40;1.00;;;;;;5070788;28;20380;-52
2023/01/06 11:31:17;;;;;;;4.07;0.40;;;12.50;1.00;;;;;;5069769;28;20453;-57
2023/01/06 11:33:59;;;;;;;7.50;0.60;;;12.40;1.00;;;;;;5069805;28;20384;-52
2023/01/06 11:36:27;;;;;;;4.45;0.60;;;12.70;1.00;;;;;;5069226;28;20415;-51
2023/01/06 11:39:25;;;;;;;4.47;0.68;;;12.80;1.00;;;;;;5070397;28;20880;-53
2023/01/06 11:41:52;;;;;;;4.40;0.80;;;12.90;1.00;;;;;;5061544;28;20407;-51
2023/01/06 11:44:31;;;;;;;4.63;0.95;;;12.90;1.00;;;;;;5075856;28;20380;-51
2023/01/06 11:47:02;;;;;;;4.70;0.77;;;12.90;1.00;;;;;;5070260;28;20407;-53
2023/01/06 11:49:38;;;;;;;4.70;0.87;;;12.90;1.00;;;;;;5069248;28;20406;-52
2023/01/06 11:52:21;;;;;;;4.60;0.70;;;12.90;1.00;;;;;;5051690;28;20496;-57
2023/01/06 11:54:59;;;;;;;5.40;1.30;;;12.80;1.00;;;;;;5069984;28;20379;-51
2023/01/06 11:57:32;;;;;;;4.20;0.60;;;12.80;1.00;;;;;;5069162;28;20394;-52
2023/01/06 12:00:24;;;;;;;5.80;1.00;;;12.90;99.90;;;;;;5069825;28;20463;-52
2023/01/06 12:03:27;;;;;;;4.65;0.98;;;12.70;1.00;;;;;;5069791;28;20445;-52
2023/01/06 12:06:06;;;;;;;4.65;0.52;;;12.80;1.00;;;;;;5069463;28;20399;-52
2023/01/06 12:08:57;;;;;;;3.90;0.43;;;12.80;1.00;;;;;;5051295;28;20435;-52
2023/01/06 12:11:32;;;;;;;4.68;0.50;;;12.70;99.90;;;;;;5069281;28;20398;-52
2023/01/06 12:13:57;;;;;;;4.22;0.60;;;12.50;1.00;;;;;;5068006;28;20504;-53
2023/01/06 12:16:45;;;;;;;4.80;0.97;;;12.50;1.00;;;;;;5050881;28;20421;-53
2023/01/06 12:19:19;;;;;;;5.03;1.10;;;12.30;1.00;;;;;;5048785;28;20386;-52
2023/01/06 12:21:44;;;;;;;4.70;0.80;;;12.50;1.00;;;;;;5049817;28;20381;-52
2023/01/06 12:24:15;;;;;;;4.83;1.30;;;12.50;1.00;;;;;;5049384;28;20727;-52
2023/01/06 12:26:42;;;;;;;4.20;0.60;;;12.70;1.00;;;;;;5048615;28;20397;-52
2023/01/06 12:29:08;;;;;;;4.80;0.80;;;12.80;1.00;;;;;;5049039;28;20389;-52
2023/01/06 12:31:48;;;;;;;4.30;0.60;;;13.00;99.90;;;;;;5049888;28;20377;-52
2023/01/06 12:34:35;;;;;;;4.13;0.60;;;13.10;99.90;;;;;;5048767;28;20389;-52
2023/01/06 12:37:00;;;;;;;4.20;0.60;;;13.10;99.90;;;;;;5049831;28;20420;-52
2023/01/06 12:39:52;;;;;;;4.00;0.40;;;12.90;99.90;;;;;;5060979;28;20514;-51
2023/01/06 12:42:34;;;;;;;4.00;0.43;;;12.90;99.90;;;;;;5068773;28;20402;-51
2023/01/06 12:45:36;;;;;;;4.38;0.40;;;12.90;99.90;;;;;;5078159;28;20381;-51
2023/01/06 12:48:15;;;;;;;3.90;0.40;;;12.80;99.90;;;;;;5050322;28;20422;-52
2023/01/06 12:50:50;;;;;;;4.10;0.40;;;12.70;99.90;;;;;;5082850;28;20850;-51
2023/01/06 12:53:24;;;;;;;4.60;0.47;;;12.70;99.90;;;;;;5079807;28;20457;-51
2023/01/06 12:56:01;;;;;;;4.30;0.50;;;12.40;99.90;;;;;;5073396;28;20406;-51
2023/01/06 12:58:38;;;;;;;4.00;0.50;;;12.60;99.90;;;;;;5062738;28;20388;-52
2023/01/06 13:01:14;;;;;;;5.03;0.90;;;12.60;99.90;;;;;;5078322;28;20826;-55
2023/01/06 13:03:52;;;;;;;5.33;1.50;;;12.80;99.90;;;;;;5083954;28;20839;-51
2023/01/06 13:06:39;;;;;;;4.70;0.80;;;12.90;99.90;;;;;;5053358;28;20414;-51
2023/01/06 13:09:13;;;;;;;4.30;0.60;;;13.10;99.90;;;;;;5079308;28;20414;-56
2023/01/06 13:11:42;;;;;;;4.20;0.50;;;13.10;99.90;;;;;;5083218;28;20386;-52
2023/01/06 13:14:28;;;;;;;5.88;1.42;;;13.10;99.90;;;;;;5067217;28;20405;-55